Terminal Aerodrome Forecast
Issued by NWS

Home | Current Version | Previous Version | Text Only | Print | Product List | Glossary On
Versions: 1 2 3 4 5 6 7 8 9 10 11 12 13 14
000
FTUS46 KEKA 252340
TAFUKI
TAF
KUKI 252340Z 2600/2624 16008G18KT P6SM SKC
     FM260300 15004KT P6SM SKC
     FM261100 15004KT P6SM SCT008
     FM261700 14004KT P6SM SKC
     FM262100 14008G18KT P6SM SKC=

USA.gov is the U.S. government's official web portal to all federal, state and local government web resources and services.